FMEE

Roland Garros Airport

St Denis, Reunion
METAR FMEE 152030Z AUTO 18006KT CAVOK 17/11 Q1018 NOSIG
Observed Flight Rules
Jul-15 @ 20:30 UTC (39 minutes ago) Visual Flight Rules
Wind Visibility Clouds
180° at 6 knots 10,000+ meters
  • Clear skies
Temperatures Readings
Current 17°C / 63°F
Dewpoint 11°C / 52°F
Humidity 68%
Altimeter 30.06" Hg
Pressure 1018 hPa
Elevation 25
METAR FMEE 152030Z AUTO 18006KT CAVOK 17/11 Q1018 NOSIG
Observed Flight Rules
Jul-15 @ 20:30 UTC
(39 minutes ago)
VFR
Wind Visibility
180° at 6 knots 10,000+ meters
Clouds
  • Clear skies
Temperature Dewpoint
17°C / 63°F 11°C / 52°F
Humidity Altimeter Pressure
68% 30.06" Hg 1018 hPa